createdAt,value
2019-03-01T00:01:59.376Z,10.60
2019-03-01T00:04:42.550Z,10.60
2019-03-01T00:07:48.599Z,10.60
2019-03-01T00:10:28.417Z,10.60
2019-03-01T00:13:20.851Z,10.60
2019-03-01T00:15:57.929Z,10.60
2019-03-01T00:18:40.654Z,10.60
2019-03-01T00:21:54.539Z,10.60
2019-03-01T00:24:46.766Z,10.50
2019-03-01T00:27:58.880Z,10.50
2019-03-01T00:30:41.880Z,10.50
2019-03-01T00:33:46.227Z,10.50
2019-03-01T00:36:41.518Z,10.40
2019-03-01T00:39:21.575Z,10.40
2019-03-01T00:42:17.150Z,10.40
2019-03-01T00:44:48.369Z,10.40
2019-03-01T00:47:18.547Z,10.40
2019-03-01T00:49:48.266Z,10.30
2019-03-01T00:52:18.083Z,10.30
2019-03-01T00:54:47.783Z,10.40
2019-03-01T00:57:17.461Z,10.40
2019-03-01T00:59:47.211Z,10.30
2019-03-01T01:02:17.002Z,10.30
2019-03-01T01:04:47.072Z,10.30
2019-03-01T01:07:16.739Z,10.30
2019-03-01T01:09:46.551Z,10.30
2019-03-01T01:12:16.387Z,10.20
2019-03-01T01:14:46.120Z,10.30
2019-03-01T01:17:15.989Z,10.30
2019-03-01T01:19:45.729Z,10.30
2019-03-01T01:22:15.478Z,10.20
2019-03-01T01:24:45.188Z,10.20
2019-03-01T01:27:15.024Z,10.20
2019-03-01T01:29:44.733Z,10.30
2019-03-01T01:32:14.513Z,10.20
2019-03-01T01:34:45.025Z,10.20
2019-03-01T01:37:14.695Z,10.20
2019-03-01T01:39:44.444Z,10.20
2019-03-01T01:42:14.121Z,10.20
2019-03-01T01:44:43.835Z,10.20
2019-03-01T01:47:13.572Z,10.20
2019-03-01T01:49:43.356Z,10.20
2019-03-01T01:52:13.069Z,10.20
2019-03-01T01:54:42.869Z,10.20
2019-03-01T01:57:12.538Z,10.20
2019-03-01T01:59:42.291Z,10.20
2019-03-01T02:02:11.996Z,10.20
2019-03-01T02:04:41.734Z,10.20
2019-03-01T02:07:11.673Z,10.20
2019-03-01T02:09:41.436Z,10.10
2019-03-01T02:12:11.153Z,10.20
2019-03-01T02:14:40.876Z,10.20
2019-03-01T02:17:10.660Z,10.20
2019-03-01T02:19:40.404Z,10.20
2019-03-01T02:22:10.108Z,10.10
2019-03-01T02:24:39.803Z,10.20
2019-03-01T02:27:22.938Z,10.20
2019-03-01T02:29:52.832Z,10.20
2019-03-01T02:32:35.702Z,10.20
2019-03-01T02:35:09.199Z,10.20
2019-03-01T02:37:39.027Z,10.20
2019-03-01T02:40:12.931Z,10.10
2019-03-01T02:42:42.775Z,10.10
2019-03-01T02:45:23.602Z,10.20
2019-03-01T02:47:53.389Z,10.10
2019-03-01T02:50:23.187Z,10.10
2019-03-01T02:52:52.843Z,10.10
2019-03-01T02:55:24.377Z,10.10
2019-03-01T02:57:54.046Z,10.10
2019-03-01T03:00:29.481Z,10.10
2019-03-01T03:02:59.599Z,10.10
2019-03-01T03:05:29.415Z,10.10
2019-03-01T03:08:00.749Z,10.10
2019-03-01T03:10:30.683Z,10.10
2019-03-01T03:13:06.533Z,10.10
2019-03-01T03:15:38.005Z,10.00
2019-03-01T03:18:08.336Z,10.00
2019-03-01T03:20:38.387Z,10.00
2019-03-01T03:23:08.113Z,10.00
2019-03-01T03:25:38.035Z,9.90
2019-03-01T03:28:07.677Z,9.90
2019-03-01T03:30:37.868Z,9.90
2019-03-01T03:33:07.681Z,9.90
2019-03-01T03:35:37.422Z,9.90
2019-03-01T03:38:07.247Z,9.90
2019-03-01T03:40:37.060Z,9.90
2019-03-01T03:43:06.979Z,9.90
2019-03-01T03:45:36.628Z,9.80
2019-03-01T03:48:06.441Z,9.80
2019-03-01T03:50:36.247Z,9.80
2019-03-01T03:53:06.025Z,9.80
2019-03-01T03:55:35.985Z,9.80
2019-03-01T03:58:06.707Z,9.90
2019-03-01T04:00:36.566Z,9.90
2019-03-01T04:03:06.494Z,9.90
2019-03-01T04:05:36.214Z,9.80
2019-03-01T04:08:06.253Z,9.80
2019-03-01T04:10:36.020Z,9.80
2019-03-01T04:13:05.825Z,9.80
2019-03-01T04:15:35.590Z,9.80
2019-03-01T04:18:05.367Z,9.80
2019-03-01T04:20:35.101Z,9.80
2019-03-01T04:23:04.914Z,9.80
2019-03-01T04:25:34.655Z,9.80
2019-03-01T04:28:04.485Z,9.80
2019-03-01T04:30:34.593Z,9.80
2019-03-01T04:33:04.337Z,9.80
2019-03-01T04:35:34.046Z,9.80
2019-03-01T04:38:03.755Z,9.80
2019-03-01T04:40:33.408Z,9.80
2019-03-01T04:43:03.147Z,9.80
2019-03-01T04:45:32.865Z,9.80
2019-03-01T04:48:02.694Z,9.80
2019-03-01T04:50:32.438Z,9.80
2019-03-01T04:53:02.147Z,9.70
2019-03-01T04:55:31.826Z,9.70
2019-03-01T04:58:01.729Z,9.80
2019-03-01T05:00:32.066Z,9.70
2019-03-01T05:03:01.826Z,9.70
2019-03-01T05:05:31.570Z,9.70
2019-03-01T05:08:01.242Z,9.70
2019-03-01T05:10:30.972Z,9.70
2019-03-01T05:13:00.609Z,9.70
2019-03-01T05:15:30.367Z,9.70
2019-03-01T05:18:00.015Z,9.60
2019-03-01T05:20:31.098Z,9.70
2019-03-01T05:23:01.054Z,9.70
2019-03-01T05:25:30.762Z,9.70
2019-03-01T05:28:00.417Z,9.70
2019-03-01T05:30:30.087Z,9.70
2019-03-01T05:32:59.870Z,9.70
2019-03-01T05:35:29.652Z,9.70
2019-03-01T05:37:59.345Z,9.70
2019-03-01T05:40:29.151Z,9.70
2019-03-01T05:42:58.923Z,9.70
2019-03-01T05:45:30.695Z,9.70
2019-03-01T05:48:01.340Z,9.70
2019-03-01T05:50:31.095Z,9.70
2019-03-01T05:53:00.807Z,9.70
2019-03-01T05:55:30.533Z,9.70
2019-03-01T05:58:21.589Z,9.70
2019-03-01T06:00:52.762Z,9.70
2019-03-01T06:03:35.826Z,9.80
2019-03-01T06:06:05.679Z,9.80
2019-03-01T06:08:42.939Z,9.70
2019-03-01T06:11:19.879Z,9.80
2019-03-01T06:13:56.951Z,9.70
2019-03-01T06:16:51.779Z,9.70
2019-03-01T06:19:35.154Z,9.80
2019-03-01T06:22:30.581Z,9.80
2019-03-01T06:25:32.127Z,9.80
2019-03-01T06:28:09.081Z,9.70
2019-03-01T06:31:01.169Z,9.80
2019-03-01T06:34:18.125Z,9.80
2019-03-01T06:36:55.166Z,9.70
2019-03-01T06:40:13.321Z,9.70
2019-03-01T06:43:07.868Z,9.70
2019-03-01T06:45:59.500Z,9.70
2019-03-01T06:48:33.800Z,9.70
2019-03-01T06:51:08.050Z,9.70
2019-03-01T06:53:37.743Z,9.70
2019-03-01T06:56:07.959Z,9.70
2019-03-01T06:58:37.688Z,9.70
2019-03-01T07:01:09.210Z,9.70
2019-03-01T07:03:38.919Z,9.80
2019-03-01T07:06:08.597Z,9.80
2019-03-01T07:08:38.372Z,9.70
2019-03-01T07:11:08.062Z,9.70
2019-03-01T07:13:37.747Z,9.70
2019-03-01T07:16:07.520Z,9.60
2019-03-01T07:18:37.319Z,9.60
2019-03-01T07:21:07.080Z,9.60
2019-03-01T07:23:37.325Z,9.50
2019-03-01T07:26:07.127Z,9.50
2019-03-01T07:28:36.847Z,9.50
2019-03-01T07:31:07.152Z,9.50
2019-03-01T07:33:36.927Z,9.50
2019-03-01T07:36:06.705Z,9.50
2019-03-01T07:38:36.392Z,9.50
2019-03-01T07:41:06.326Z,9.60
2019-03-01T07:43:36.977Z,9.50
2019-03-01T07:46:06.695Z,9.60
2019-03-01T07:48:36.526Z,9.60
2019-03-01T07:51:06.425Z,9.50
2019-03-01T07:53:40.332Z,9.50
2019-03-01T07:56:07.638Z,9.50
2019-03-01T07:58:37.471Z,9.50
2019-03-01T08:01:07.388Z,9.40
2019-03-01T08:03:37.158Z,9.40
2019-03-01T08:06:06.872Z,9.40
2019-03-01T08:08:38.801Z,9.40
2019-03-01T08:11:08.344Z,9.30
2019-03-01T08:13:38.700Z,9.30
2019-03-01T08:16:08.500Z,9.20
2019-03-01T08:18:40.287Z,9.20
2019-03-01T08:21:10.283Z,9.20
2019-03-01T08:23:41.046Z,9.20
2019-03-01T08:26:10.997Z,9.20
2019-03-01T08:28:41.065Z,9.10
2019-03-01T08:31:10.825Z,9.10
2019-03-01T08:33:43.376Z,9.20
2019-03-01T08:36:12.159Z,9.10
2019-03-01T08:38:41.884Z,9.10
2019-03-01T08:41:11.874Z,9.10
2019-03-01T08:43:44.802Z,9.10
2019-03-01T08:46:12.991Z,9.00
2019-03-01T08:48:42.749Z,8.90
2019-03-01T08:51:12.437Z,8.80
2019-03-01T08:53:42.233Z,8.70
2019-03-01T08:56:14.578Z,8.70
2019-03-01T08:58:43.290Z,8.70
2019-03-01T09:01:20.883Z,8.70
2019-03-01T09:04:02.112Z,8.70
2019-03-01T09:06:31.909Z,8.70
2019-03-01T09:09:02.317Z,8.60
2019-03-01T09:11:32.540Z,8.60
2019-03-01T09:14:02.813Z,8.60
2019-03-01T09:16:32.873Z,8.70
2019-03-01T09:19:02.583Z,8.60
2019-03-01T09:21:32.266Z,8.60
2019-03-01T09:24:02.127Z,8.60
2019-03-01T09:26:31.794Z,8.60
2019-03-01T09:29:01.487Z,8.60
2019-03-01T09:31:31.145Z,8.60
2019-03-01T09:34:00.874Z,8.60
2019-03-01T09:36:32.187Z,8.70
2019-03-01T09:39:01.878Z,8.70
2019-03-01T09:41:31.578Z,8.70
2019-03-01T09:44:03.019Z,8.60
2019-03-01T09:46:32.807Z,8.60
2019-03-01T09:49:02.466Z,8.70
2019-03-01T09:51:32.170Z,8.70
2019-03-01T09:54:02.290Z,8.80
2019-03-01T09:56:32.136Z,8.80
2019-03-01T09:59:01.876Z,8.80
2019-03-01T10:01:31.628Z,8.80
2019-03-01T10:04:01.619Z,8.80
2019-03-01T10:06:37.817Z,8.80
2019-03-01T10:09:02.708Z,8.80
2019-03-01T10:11:32.589Z,8.80
2019-03-01T10:14:02.359Z,8.80
2019-03-01T10:16:32.149Z,8.80
2019-03-01T10:19:01.804Z,8.70
2019-03-01T10:21:31.534Z,8.70
2019-03-01T10:24:01.257Z,8.70
2019-03-01T10:26:30.949Z,8.70
2019-03-01T10:29:00.691Z,8.70
2019-03-01T10:31:30.394Z,8.70
2019-03-01T10:34:00.208Z,8.70
2019-03-01T10:36:30.049Z,8.70
2019-03-01T10:38:59.712Z,8.70
2019-03-01T10:41:29.398Z,8.70
2019-03-01T10:43:59.088Z,8.80
2019-03-01T10:46:28.800Z,8.70
2019-03-01T10:48:58.458Z,8.70
2019-03-01T10:51:28.224Z,8.70
2019-03-01T10:53:58.407Z,8.80
2019-03-01T10:56:28.106Z,8.80
2019-03-01T10:58:58.517Z,8.80
2019-03-01T11:01:28.218Z,8.90
2019-03-01T11:03:58.053Z,8.80
2019-03-01T11:06:27.792Z,8.80
2019-03-01T11:08:57.506Z,8.90
2019-03-01T11:11:27.249Z,8.90
2019-03-01T11:13:57.254Z,9.00
2019-03-01T11:16:26.971Z,8.90
2019-03-01T11:18:56.933Z,8.90
2019-03-01T11:21:26.663Z,9.00
2019-03-01T11:23:56.585Z,8.90
2019-03-01T11:26:26.321Z,8.90
2019-03-01T11:28:56.175Z,8.80
2019-03-01T11:31:26.297Z,8.80
2019-03-01T11:33:55.997Z,8.80
2019-03-01T11:36:25.852Z,8.80
2019-03-01T11:38:56.041Z,8.70
2019-03-01T11:41:25.847Z,8.70
2019-03-01T11:43:56.139Z,8.60
2019-03-01T11:46:26.059Z,8.60
2019-03-01T11:48:55.698Z,8.60
2019-03-01T11:51:25.424Z,8.50
2019-03-01T11:53:55.174Z,8.20
2019-03-01T11:56:25.045Z,8.00
2019-03-01T11:58:54.722Z,7.80
2019-03-01T12:01:24.406Z,7.70
2019-03-01T12:03:54.167Z,7.60
2019-03-01T12:06:23.868Z,7.60
2019-03-01T12:08:53.507Z,7.40
2019-03-01T12:11:23.422Z,7.50
2019-03-01T12:13:53.224Z,7.40
2019-03-01T12:16:23.035Z,7.40
2019-03-01T12:18:52.781Z,7.10
2019-03-01T12:21:22.439Z,7.00
2019-03-01T12:23:52.167Z,6.90
2019-03-01T12:26:21.913Z,6.90
2019-03-01T12:28:51.620Z,6.90
2019-03-01T12:31:21.344Z,6.70
2019-03-01T12:36:20.027Z,6.60
2019-03-01T12:38:49.855Z,6.60
2019-03-01T12:41:19.708Z,6.60
2019-03-01T12:43:49.388Z,6.70
2019-03-01T12:46:19.104Z,6.70
2019-03-01T12:48:48.854Z,6.80
2019-03-01T12:51:18.699Z,6.80
2019-03-01T12:53:48.489Z,6.80
2019-03-01T12:56:18.257Z,6.60
2019-03-01T12:58:48.026Z,6.60
2019-03-01T13:01:17.865Z,6.60
2019-03-01T13:03:47.552Z,6.60
2019-03-01T13:06:17.482Z,6.70
2019-03-01T13:08:47.824Z,6.70
2019-03-01T13:11:18.726Z,6.70
2019-03-01T13:13:48.465Z,6.80
2019-03-01T13:16:18.278Z,6.80
2019-03-01T13:18:51.478Z,6.80
2019-03-01T13:21:19.609Z,6.80
2019-03-01T13:23:49.315Z,6.80
2019-03-01T13:26:19.061Z,6.80
2019-03-01T13:28:48.805Z,6.80
2019-03-01T13:31:18.527Z,6.90
2019-03-01T13:33:48.281Z,6.90
2019-03-01T13:36:18.067Z,6.90
2019-03-01T13:38:47.842Z,6.80
2019-03-01T13:41:17.688Z,6.90
2019-03-01T13:43:47.741Z,7.00
2019-03-01T13:46:17.430Z,7.10
2019-03-01T13:48:47.124Z,7.10
2019-03-01T13:51:17.206Z,7.10
2019-03-01T13:53:49.130Z,7.00
2019-03-01T13:56:19.251Z,7.10
2019-03-01T13:58:49.115Z,7.20
2019-03-01T14:01:18.871Z,7.20
2019-03-01T14:03:48.686Z,7.30
2019-03-01T14:06:18.610Z,7.30
2019-03-01T14:08:48.385Z,7.40
2019-03-01T14:11:21.590Z,7.40
2019-03-01T14:13:51.083Z,7.40
2019-03-01T14:16:21.773Z,7.40
2019-03-01T14:18:51.685Z,7.30
2019-03-01T14:21:21.465Z,7.30
2019-03-01T14:23:51.330Z,7.40
2019-03-01T14:26:21.081Z,7.40
2019-03-01T14:28:50.795Z,7.40
2019-03-01T14:31:20.563Z,7.40
2019-03-01T14:33:51.660Z,7.40
2019-03-01T14:40:15.787Z,7.50
2019-03-01T14:42:50.131Z,7.50
2019-03-01T14:45:28.846Z,7.50
2019-03-01T14:47:58.756Z,7.50
2019-03-01T14:50:33.870Z,7.60
2019-03-01T14:53:01.915Z,7.50
2019-03-01T14:55:52.393Z,7.60
2019-03-01T15:02:18.021Z,7.60
2019-03-01T15:04:47.798Z,7.60
2019-03-01T15:07:17.453Z,7.60
2019-03-01T15:09:47.228Z,7.70
2019-03-01T15:12:20.893Z,7.70
2019-03-01T15:14:49.975Z,7.70
2019-03-01T15:17:21.899Z,7.70
2019-03-01T15:19:51.637Z,7.70
2019-03-01T15:22:21.429Z,7.70
2019-03-01T15:24:51.512Z,7.70
2019-03-01T15:27:21.299Z,7.70
2019-03-01T15:29:51.015Z,7.70
2019-03-01T15:32:20.677Z,7.70
2019-03-01T15:34:50.550Z,7.80
2019-03-01T15:37:20.320Z,7.80
2019-03-01T15:39:51.303Z,7.80
2019-03-01T15:42:21.712Z,7.80
2019-03-01T15:44:51.495Z,7.80
2019-03-01T15:47:23.906Z,7.80
2019-03-01T15:49:52.581Z,7.80
2019-03-01T15:52:22.266Z,7.70
2019-03-01T15:54:51.970Z,7.70
2019-03-01T15:57:21.615Z,7.80
2019-03-01T15:59:51.396Z,7.90
2019-03-01T16:02:21.093Z,7.80
2019-03-01T16:04:50.962Z,7.80
2019-03-01T16:07:20.675Z,7.80
2019-03-01T16:09:50.555Z,7.80
2019-03-01T16:12:20.367Z,7.80
2019-03-01T16:14:50.155Z,7.80
2019-03-01T16:17:21.895Z,7.80
2019-03-01T16:19:53.430Z,7.80
2019-03-01T16:22:22.836Z,7.80
2019-03-01T16:24:52.539Z,7.80
2019-03-01T16:27:22.348Z,7.80
2019-03-01T16:29:52.024Z,7.80
2019-03-01T16:32:21.722Z,7.70
2019-03-01T16:34:51.412Z,7.50
2019-03-01T16:37:22.727Z,7.40
2019-03-01T16:39:56.035Z,7.30
2019-03-01T16:42:24.049Z,7.20
2019-03-01T16:44:53.762Z,7.20
2019-03-01T16:47:23.422Z,7.20
2019-03-01T16:49:53.190Z,7.10
2019-03-01T16:52:22.935Z,7.10
2019-03-01T16:54:54.715Z,7.20
2019-03-01T16:57:24.102Z,7.20
2019-03-01T16:59:53.833Z,7.20
2019-03-01T17:02:23.486Z,7.20
2019-03-01T17:04:53.204Z,7.20
2019-03-01T17:07:25.067Z,7.20
2019-03-01T17:09:55.044Z,7.20
2019-03-01T17:12:24.703Z,7.10
2019-03-01T17:14:54.467Z,7.00
2019-03-01T17:17:24.211Z,7.00
2019-03-01T17:19:53.879Z,6.90
2019-03-01T17:22:26.404Z,6.90
2019-03-01T17:24:56.371Z,7.00
2019-03-01T17:27:26.124Z,7.00
2019-03-01T17:29:55.783Z,7.00
2019-03-01T17:32:25.605Z,7.00
2019-03-01T17:34:55.317Z,7.00
2019-03-01T17:37:25.869Z,7.00
2019-03-01T17:39:57.691Z,7.00
2019-03-01T17:42:27.503Z,7.00
2019-03-01T17:44:57.808Z,7.00
2019-03-01T17:47:27.632Z,7.10
2019-03-01T17:49:57.350Z,7.10
2019-03-01T17:52:30.550Z,7.10
2019-03-01T17:55:01.511Z,7.10
2019-03-01T17:57:33.117Z,7.20
2019-03-01T18:00:02.863Z,7.10
2019-03-01T18:02:32.596Z,7.10
2019-03-01T18:05:02.348Z,7.10
2019-03-01T18:07:32.131Z,7.10
2019-03-01T18:10:01.846Z,7.10
2019-03-01T18:12:31.708Z,7.10
2019-03-01T18:15:01.365Z,7.00
2019-03-01T18:17:32.988Z,7.10
2019-03-01T18:20:02.811Z,7.10
2019-03-01T18:22:33.550Z,7.10
2019-03-01T18:25:03.494Z,7.10
2019-03-01T18:27:33.216Z,7.10
2019-03-01T18:30:02.990Z,7.00
2019-03-01T18:32:32.701Z,7.10
2019-03-01T18:35:02.441Z,7.10
2019-03-01T18:37:32.166Z,7.10
2019-03-01T18:40:01.919Z,7.20
2019-03-01T18:42:34.303Z,7.10
2019-03-01T18:45:03.553Z,7.10
2019-03-01T18:47:34.459Z,7.00
2019-03-01T18:50:06.199Z,7.00
2019-03-01T18:52:35.911Z,7.10
2019-03-01T18:55:09.061Z,7.10
2019-03-01T18:57:39.525Z,7.10
2019-03-01T19:00:13.921Z,7.10
2019-03-01T19:02:43.806Z,7.10
2019-03-01T19:05:13.523Z,7.10
2019-03-01T19:07:43.208Z,7.10
2019-03-01T19:10:19.737Z,7.10
2019-03-01T19:12:49.657Z,7.10
2019-03-01T19:15:19.463Z,7.10
2019-03-01T19:17:49.223Z,7.10
2019-03-01T19:20:41.069Z,7.10
2019-03-01T19:23:09.475Z,7.10
2019-03-01T19:25:39.218Z,7.10
2019-03-01T19:28:08.931Z,7.10
2019-03-01T19:30:38.785Z,7.10
2019-03-01T19:33:08.778Z,7.10
2019-03-01T19:35:39.137Z,7.10
2019-03-01T19:38:08.901Z,7.20
2019-03-01T19:40:38.673Z,7.10
2019-03-01T19:43:10.206Z,7.10
2019-03-01T19:45:40.792Z,7.10
2019-03-01T19:48:11.427Z,7.20
2019-03-01T19:50:41.080Z,7.20
2019-03-01T19:53:10.836Z,7.20
2019-03-01T19:55:40.598Z,7.20
2019-03-01T19:58:11.952Z,7.20
2019-03-01T20:00:42.445Z,7.20
2019-03-01T20:03:13.477Z,7.20
2019-03-01T20:05:43.550Z,7.20
2019-03-01T20:08:13.297Z,7.20
2019-03-01T20:10:43.075Z,7.10
2019-03-01T20:13:16.474Z,7.10
2019-03-01T20:15:46.225Z,7.10
2019-03-01T20:18:16.349Z,7.10
2019-03-01T20:20:46.073Z,7.10
2019-03-01T20:23:15.721Z,7.10
2019-03-01T20:25:47.643Z,7.10
2019-03-01T20:28:16.851Z,7.10
2019-03-01T20:30:47.285Z,7.10
2019-03-01T20:33:17.092Z,7.10
2019-03-01T20:35:46.838Z,7.00
2019-03-01T20:38:16.609Z,7.10
2019-03-01T20:40:46.352Z,7.10
2019-03-01T20:43:16.149Z,7.10
2019-03-01T20:45:45.809Z,7.10
2019-03-01T20:48:15.560Z,7.20
2019-03-01T20:50:47.648Z,7.20
2019-03-01T20:53:16.706Z,7.20
2019-03-01T20:55:46.344Z,7.20
2019-03-01T20:58:16.093Z,7.20
2019-03-01T21:00:45.886Z,7.20
2019-03-01T21:03:15.648Z,7.20
2019-03-01T21:05:45.390Z,7.20
2019-03-01T21:08:15.126Z,7.20
2019-03-01T21:10:46.848Z,7.20
2019-03-01T21:13:16.214Z,7.20
2019-03-01T21:15:46.045Z,7.20
2019-03-01T21:18:15.706Z,7.20
2019-03-01T21:20:45.473Z,7.10
2019-03-01T21:23:15.899Z,7.10
2019-03-01T21:25:45.757Z,7.10
2019-03-01T21:28:15.483Z,7.10
2019-03-01T21:30:45.660Z,7.10
2019-03-01T21:33:15.659Z,7.10
2019-03-01T21:35:47.749Z,7.10
2019-03-01T21:38:16.811Z,7.10
2019-03-01T21:40:47.016Z,7.10
2019-03-01T21:43:16.780Z,7.10
2019-03-01T21:45:46.582Z,7.10
2019-03-01T21:48:16.378Z,7.10
2019-03-01T21:50:46.076Z,7.10
2019-03-01T21:53:15.807Z,7.10
2019-03-01T21:55:45.497Z,7.10
2019-03-01T21:58:15.146Z,7.10
2019-03-01T22:00:44.936Z,7.10
2019-03-01T22:03:14.675Z,7.10
2019-03-01T22:05:45.284Z,7.10
2019-03-01T22:08:15.903Z,7.20
2019-03-01T22:10:45.578Z,7.20
2019-03-01T22:13:15.288Z,7.20
2019-03-01T22:15:44.908Z,7.20
2019-03-01T22:18:14.676Z,7.20
2019-03-01T22:20:44.829Z,7.20
2019-03-01T22:23:16.477Z,7.20
2019-03-01T22:25:46.323Z,7.20
2019-03-01T22:28:15.997Z,7.20
2019-03-01T22:30:45.731Z,7.20
2019-03-01T22:33:17.359Z,7.20
2019-03-01T22:35:46.992Z,7.20
2019-03-01T22:38:16.679Z,7.20
2019-03-01T22:40:46.424Z,7.20
2019-03-01T22:43:16.096Z,7.20
2019-03-01T22:45:48.915Z,7.20
2019-03-01T22:48:17.215Z,7.20
2019-03-01T22:50:47.004Z,7.20
2019-03-01T22:53:16.639Z,7.20
2019-03-01T22:55:46.316Z,7.20
2019-03-01T22:58:16.078Z,7.20
2019-03-01T23:01:03.537Z,7.20
2019-03-01T23:03:33.440Z,7.20
2019-03-01T23:06:03.233Z,7.20
2019-03-01T23:08:35.521Z,7.20
2019-03-01T23:11:04.585Z,7.20
2019-03-01T23:13:34.300Z,7.20
2019-03-01T23:16:04.070Z,7.20
2019-03-01T23:18:33.812Z,7.20
2019-03-01T23:21:03.562Z,7.20
2019-03-01T23:23:33.213Z,7.20
2019-03-01T23:26:02.910Z,7.20
2019-03-01T23:28:32.570Z,7.20
2019-03-01T23:31:03.635Z,7.20
2019-03-01T23:33:34.261Z,7.20
2019-03-01T23:36:03.997Z,7.20
2019-03-01T23:38:33.705Z,7.30
2019-03-01T23:41:03.453Z,7.20
2019-03-01T23:43:33.208Z,7.20
2019-03-01T23:46:02.868Z,7.20
2019-03-01T23:48:32.580Z,7.20
2019-03-01T23:51:02.249Z,7.20
2019-03-01T23:53:34.088Z,7.20
2019-03-01T23:56:03.457Z,7.20
2019-03-01T23:58:33.158Z,7.20
